sensor_id;sensor_type;location;lat;lon;timestamp;temperature;humidity
23618;DHT22;18207;32.078;34.818;2023-04-15T00:01:11;23.50;40.40
23618;DHT22;18207;32.078;34.818;2023-04-15T00:03:49;23.50;40.40
23618;DHT22;18207;32.078;34.818;2023-04-15T00:06:21;23.50;40.40
23618;DHT22;18207;32.078;34.818;2023-04-15T00:08:51;23.50;40.40
23618;DHT22;18207;32.078;34.818;2023-04-15T00:11:22;23.50;40.50
23618;DHT22;18207;32.078;34.818;2023-04-15T00:13:52;23.50;40.50
23618;DHT22;18207;32.078;34.818;2023-04-15T00:16:22;23.50;40.50
23618;DHT22;18207;32.078;34.818;2023-04-15T00:18:55;23.50;40.50
23618;DHT22;18207;32.078;34.818;2023-04-15T00:21:25;23.50;40.60
23618;DHT22;18207;32.078;34.818;2023-04-15T00:23:55;23.50;40.60
23618;DHT22;18207;32.078;34.818;2023-04-15T00:26:25;23.50;40.60
23618;DHT22;18207;32.078;34.818;2023-04-15T00:28:55;23.40;41.20
23618;DHT22;18207;32.078;34.818;2023-04-15T00:31:25;23.50;40.70
23618;DHT22;18207;32.078;34.818;2023-04-15T00:33:56;23.40;40.60
23618;DHT22;18207;32.078;34.818;2023-04-15T00:36:27;23.40;40.60
23618;DHT22;18207;32.078;34.818;2023-04-15T00:38:58;23.40;40.60
23618;DHT22;18207;32.078;34.818;2023-04-15T00:41:29;23.40;40.60
23618;DHT22;18207;32.078;34.818;2023-04-15T00:44:00;23.40;40.60
23618;DHT22;18207;32.078;34.818;2023-04-15T00:46:31;23.40;40.70
23618;DHT22;18207;32.078;34.818;2023-04-15T00:49:06;23.40;40.70
23618;DHT22;18207;32.078;34.818;2023-04-15T00:51:36;23.40;40.80
23618;DHT22;18207;32.078;34.818;2023-04-15T00:54:06;23.40;40.80
23618;DHT22;18207;32.078;34.818;2023-04-15T00:56:37;23.40;40.80
23618;DHT22;18207;32.078;34.818;2023-04-15T00:59:07;23.40;40.80
23618;DHT22;18207;32.078;34.818;2023-04-15T01:01:38;23.40;40.80
23618;DHT22;18207;32.078;34.818;2023-04-15T01:04:11;23.30;40.80
23618;DHT22;18207;32.078;34.818;2023-04-15T01:06:41;23.30;40.80
23618;DHT22;18207;32.078;34.818;2023-04-15T01:09:11;23.30;40.90
23618;DHT22;18207;32.078;34.818;2023-04-15T01:11:41;23.30;40.90
23618;DHT22;18207;32.078;34.818;2023-04-15T01:14:13;23.30;41.00
23618;DHT22;18207;32.078;34.818;2023-04-15T01:16:44;23.30;41.00
23618;DHT22;18207;32.078;34.818;2023-04-15T01:19:17;23.30;41.00
23618;DHT22;18207;32.078;34.818;2023-04-15T01:21:48;23.30;41.00
23618;DHT22;18207;32.078;34.818;2023-04-15T01:24:19;23.20;41.00
23618;DHT22;18207;32.078;34.818;2023-04-15T01:26:51;23.30;41.20
23618;DHT22;18207;32.078;34.818;2023-04-15T01:29:21;23.20;41.10
23618;DHT22;18207;32.078;34.818;2023-04-15T01:31:52;23.20;41.10
23618;DHT22;18207;32.078;34.818;2023-04-15T01:34:23;23.20;41.20
23618;DHT22;18207;32.078;34.818;2023-04-15T01:36:54;23.20;41.20
23618;DHT22;18207;32.078;34.818;2023-04-15T01:39:24;23.20;41.20
23618;DHT22;18207;32.078;34.818;2023-04-15T01:41:55;23.20;41.20
23618;DHT22;18207;32.078;34.818;2023-04-15T01:44:25;23.20;41.20
23618;DHT22;18207;32.078;34.818;2023-04-15T01:46:56;23.20;41.20
23618;DHT22;18207;32.078;34.818;2023-04-15T01:49:25;23.20;41.20
23618;DHT22;18207;32.078;34.818;2023-04-15T01:51:55;23.20;41.20
23618;DHT22;18207;32.078;34.818;2023-04-15T01:54:25;23.20;41.30
23618;DHT22;18207;32.078;34.818;2023-04-15T01:56:57;23.20;41.20
23618;DHT22;18207;32.078;34.818;2023-04-15T01:59:29;23.10;41.20
23618;DHT22;18207;32.078;34.818;2023-04-15T02:01:59;23.10;41.20
23618;DHT22;18207;32.078;34.818;2023-04-15T02:04:29;23.10;41.20
23618;DHT22;18207;32.078;34.818;2023-04-15T02:07:00;23.10;41.20
23618;DHT22;18207;32.078;34.818;2023-04-15T02:09:30;23.00;41.20
23618;DHT22;18207;32.078;34.818;2023-04-15T02:12:02;23.00;41.20
23618;DHT22;18207;32.078;34.818;2023-04-15T02:14:32;23.00;41.20
23618;DHT22;18207;32.078;34.818;2023-04-15T02:17:02;22.90;41.20
23618;DHT22;18207;32.078;34.818;2023-04-15T02:19:35;22.90;41.20
23618;DHT22;18207;32.078;34.818;2023-04-15T02:22:05;22.90;41.20
23618;DHT22;18207;32.078;34.818;2023-04-15T02:24:35;22.90;41.20
23618;DHT22;18207;32.078;34.818;2023-04-15T02:27:07;22.90;41.30
23618;DHT22;18207;32.078;34.818;2023-04-15T02:29:38;22.80;41.30
23618;DHT22;18207;32.078;34.818;2023-04-15T02:32:07;22.80;41.30
23618;DHT22;18207;32.078;34.818;2023-04-15T02:34:38;22.70;41.20
23618;DHT22;18207;32.078;34.818;2023-04-15T02:37:09;22.70;41.30
23618;DHT22;18207;32.078;34.818;2023-04-15T02:39:41;22.70;41.30
23618;DHT22;18207;32.078;34.818;2023-04-15T02:42:13;22.70;41.30
23618;DHT22;18207;32.078;34.818;2023-04-15T02:44:43;22.70;41.30
23618;DHT22;18207;32.078;34.818;2023-04-15T02:47:13;22.60;41.30
23618;DHT22;18207;32.078;34.818;2023-04-15T02:49:44;22.60;41.40
23618;DHT22;18207;32.078;34.818;2023-04-15T02:52:14;22.60;41.40
23618;DHT22;18207;32.078;34.818;2023-04-15T02:54:44;22.60;41.40
23618;DHT22;18207;32.078;34.818;2023-04-15T02:57:15;22.60;41.50
23618;DHT22;18207;32.078;34.818;2023-04-15T02:59:46;22.60;41.60
23618;DHT22;18207;32.078;34.818;2023-04-15T03:02:16;22.60;41.60
23618;DHT22;18207;32.078;34.818;2023-04-15T03:04:46;22.60;41.60
23618;DHT22;18207;32.078;34.818;2023-04-15T03:07:17;22.60;41.60
23618;DHT22;18207;32.078;34.818;2023-04-15T03:09:48;22.60;41.60
23618;DHT22;18207;32.078;34.818;2023-04-15T03:12:20;22.60;41.60
23618;DHT22;18207;32.078;34.818;2023-04-15T03:14:50;22.60;41.70
23618;DHT22;18207;32.078;34.818;2023-04-15T03:17:19;22.60;41.70
23618;DHT22;18207;32.078;34.818;2023-04-15T03:19:49;22.60;41.70
23618;DHT22;18207;32.078;34.818;2023-04-15T03:22:19;22.60;41.70
23618;DHT22;18207;32.078;34.818;2023-04-15T03:24:49;22.60;41.80
23618;DHT22;18207;32.078;34.818;2023-04-15T03:27:21;22.60;41.80
23618;DHT22;18207;32.078;34.818;2023-04-15T03:29:51;22.60;41.80
23618;DHT22;18207;32.078;34.818;2023-04-15T03:32:21;22.60;41.80
23618;DHT22;18207;32.078;34.818;2023-04-15T03:34:51;22.60;41.80
23618;DHT22;18207;32.078;34.818;2023-04-15T03:37:21;22.60;41.90
23618;DHT22;18207;32.078;34.818;2023-04-15T03:39:51;22.60;41.90
23618;DHT22;18207;32.078;34.818;2023-04-15T03:42:23;22.60;41.90
23618;DHT22;18207;32.078;34.818;2023-04-15T03:44:54;22.60;41.90
23618;DHT22;18207;32.078;34.818;2023-04-15T03:47:24;22.60;42.00
23618;DHT22;18207;32.078;34.818;2023-04-15T03:49:54;22.60;42.00
23618;DHT22;18207;32.078;34.818;2023-04-15T03:52:24;22.60;42.00
23618;DHT22;18207;32.078;34.818;2023-04-15T03:54:54;22.70;42.10
23618;DHT22;18207;32.078;34.818;2023-04-15T03:57:26;22.60;42.00
23618;DHT22;18207;32.078;34.818;2023-04-15T03:59:56;22.70;42.20
23618;DHT22;18207;32.078;34.818;2023-04-15T04:02:26;22.60;42.10
23618;DHT22;18207;32.078;34.818;2023-04-15T04:04:57;22.70;42.20
23618;DHT22;18207;32.078;34.818;2023-04-15T04:07:27;22.70;42.20
23618;DHT22;18207;32.078;34.818;2023-04-15T04:09:57;22.70;42.10
23618;DHT22;18207;32.078;34.818;2023-04-15T04:12:29;22.70;42.00
23618;DHT22;18207;32.078;34.818;2023-04-15T04:14:59;22.70;41.90
23618;DHT22;18207;32.078;34.818;2023-04-15T04:17:29;22.70;41.90
23618;DHT22;18207;32.078;34.818;2023-04-15T04:19:59;22.80;42.00
23618;DHT22;18207;32.078;34.818;2023-04-15T04:22:29;22.80;41.90
23618;DHT22;18207;32.078;34.818;2023-04-15T04:24:59;22.70;41.90
23618;DHT22;18207;32.078;34.818;2023-04-15T04:27:31;22.80;42.00
23618;DHT22;18207;32.078;34.818;2023-04-15T04:30:01;22.80;42.00
23618;DHT22;18207;32.078;34.818;2023-04-15T04:32:31;22.80;41.90
23618;DHT22;18207;32.078;34.818;2023-04-15T04:35:01;22.80;41.90
23618;DHT22;18207;32.078;34.818;2023-04-15T04:37:31;22.80;41.80
23618;DHT22;18207;32.078;34.818;2023-04-15T04:40:02;22.80;41.70
23618;DHT22;18207;32.078;34.818;2023-04-15T04:42:34;22.80;41.70
23618;DHT22;18207;32.078;34.818;2023-04-15T04:45:06;22.90;41.80
23618;DHT22;18207;32.078;34.818;2023-04-15T04:47:37;22.90;41.80
23618;DHT22;18207;32.078;34.818;2023-04-15T04:50:08;22.90;41.80
23618;DHT22;18207;32.078;34.818;2023-04-15T04:52:38;22.90;41.80
23618;DHT22;18207;32.078;34.818;2023-04-15T04:55:08;22.90;42.00
23618;DHT22;18207;32.078;34.818;2023-04-15T04:57:40;22.90;42.00
23618;DHT22;18207;32.078;34.818;2023-04-15T05:00:11;23.00;42.00
23618;DHT22;18207;32.078;34.818;2023-04-15T05:02:41;23.00;42.00
23618;DHT22;18207;32.078;34.818;2023-04-15T05:05:11;23.00;41.90
23618;DHT22;18207;32.078;34.818;2023-04-15T05:07:41;23.10;42.00
23618;DHT22;18207;32.078;34.818;2023-04-15T05:10:10;23.10;41.90
23618;DHT22;18207;32.078;34.818;2023-04-15T05:12:43;23.10;41.80
23618;DHT22;18207;32.078;34.818;2023-04-15T05:15:13;23.20;41.90
23618;DHT22;18207;32.078;34.818;2023-04-15T05:17:43;23.20;41.80
23618;DHT22;18207;32.078;34.818;2023-04-15T05:20:13;23.20;41.80
23618;DHT22;18207;32.078;34.818;2023-04-15T05:22:43;23.30;41.80
23618;DHT22;18207;32.078;34.818;2023-04-15T05:25:13;23.30;41.80
23618;DHT22;18207;32.078;34.818;2023-04-15T05:27:45;23.40;41.90
23618;DHT22;18207;32.078;34.818;2023-04-15T05:30:16;23.40;41.90
23618;DHT22;18207;32.078;34.818;2023-04-15T05:32:46;23.50;41.80
23618;DHT22;18207;32.078;34.818;2023-04-15T05:35:16;23.50;41.80
23618;DHT22;18207;32.078;34.818;2023-04-15T05:37:45;23.50;41.80
23618;DHT22;18207;32.078;34.818;2023-04-15T05:40:15;23.60;41.80
23618;DHT22;18207;32.078;34.818;2023-04-15T05:42:48;23.70;41.90
23618;DHT22;18207;32.078;34.818;2023-04-15T05:45:18;23.70;41.80
23618;DHT22;18207;32.078;34.818;2023-04-15T05:47:49;23.80;41.80
23618;DHT22;18207;32.078;34.818;2023-04-15T05:50:20;23.90;41.90
23618;DHT22;18207;32.078;34.818;2023-04-15T05:52:50;23.90;41.80
23618;DHT22;18207;32.078;34.818;2023-04-15T05:55:20;24.00;42.00
23618;DHT22;18207;32.078;34.818;2023-04-15T05:57:52;24.10;42.00
23618;DHT22;18207;32.078;34.818;2023-04-15T06:00:22;24.10;41.90
23618;DHT22;18207;32.078;34.818;2023-04-15T06:02:52;24.30;42.00
23618;DHT22;18207;32.078;34.818;2023-04-15T06:05:23;24.40;42.10
23618;DHT22;18207;32.078;34.818;2023-04-15T06:07:53;24.50;42.10
23618;DHT22;18207;32.078;34.818;2023-04-15T06:10:23;24.50;41.90
23618;DHT22;18207;32.078;34.818;2023-04-15T06:12:55;24.70;42.00
23618;DHT22;18207;32.078;34.818;2023-04-15T06:15:25;24.80;42.00
23618;DHT22;18207;32.078;34.818;2023-04-15T06:17:55;24.80;41.80
23618;DHT22;18207;32.078;34.818;2023-04-15T06:20:26;25.00;41.90
23618;DHT22;18207;32.078;34.818;2023-04-15T06:22:56;25.10;41.90
23618;DHT22;18207;32.078;34.818;2023-04-15T06:25:26;25.20;41.80
23618;DHT22;18207;32.078;34.818;2023-04-15T06:27:58;25.30;41.70
23618;DHT22;18207;32.078;34.818;2023-04-15T06:30:29;25.40;41.60
23618;DHT22;18207;32.078;34.818;2023-04-15T06:32:59;25.40;41.50
23618;DHT22;18207;32.078;34.818;2023-04-15T06:35:29;25.50;41.50
23618;DHT22;18207;32.078;34.818;2023-04-15T06:37:59;25.60;41.40
23618;DHT22;18207;32.078;34.818;2023-04-15T06:40:30;25.60;41.20
23618;DHT22;18207;32.078;34.818;2023-04-15T06:43:02;25.70;41.20
23618;DHT22;18207;32.078;34.818;2023-04-15T06:45:32;25.80;41.20
23618;DHT22;18207;32.078;34.818;2023-04-15T06:48:02;25.80;41.10
23618;DHT22;18207;32.078;34.818;2023-04-15T06:50:33;25.80;41.00
23618;DHT22;18207;32.078;34.818;2023-04-15T06:53:04;25.80;40.90
23618;DHT22;18207;32.078;34.818;2023-04-15T06:55:34;25.90;40.90
23618;DHT22;18207;32.078;34.818;2023-04-15T06:58:06;25.90;40.90
23618;DHT22;18207;32.078;34.818;2023-04-15T07:00:36;25.90;40.70
23618;DHT22;18207;32.078;34.818;2023-04-15T07:03:07;26.00;40.80
23618;DHT22;18207;32.078;34.818;2023-04-15T07:05:39;26.00;40.80
23618;DHT22;18207;32.078;34.818;2023-04-15T07:08:09;26.00;40.70
23618;DHT22;18207;32.078;34.818;2023-04-15T07:10:39;26.00;40.60
23618;DHT22;18207;32.078;34.818;2023-04-15T07:13:12;26.00;40.60
23618;DHT22;18207;32.078;34.818;2023-04-15T07:15:41;26.10;40.50
23618;DHT22;18207;32.078;34.818;2023-04-15T07:18:12;26.10;40.40
23618;DHT22;18207;32.078;34.818;2023-04-15T07:20:42;26.10;40.30
23618;DHT22;18207;32.078;34.818;2023-04-15T07:23:12;26.20;40.30
23618;DHT22;18207;32.078;34.818;2023-04-15T07:25:42;26.20;40.30
23618;DHT22;18207;32.078;34.818;2023-04-15T07:28:15;26.20;40.40
23618;DHT22;18207;32.078;34.818;2023-04-15T07:30:45;26.20;40.60
23618;DHT22;18207;32.078;34.818;2023-04-15T07:33:15;26.30;40.70
23618;DHT22;18207;32.078;34.818;2023-04-15T07:35:45;26.30;40.70
23618;DHT22;18207;32.078;34.818;2023-04-15T07:38:16;26.40;40.90
23618;DHT22;18207;32.078;34.818;2023-04-15T07:40:46;26.40;40.90
23618;DHT22;18207;32.078;34.818;2023-04-15T07:43:18;26.50;40.90
23618;DHT22;18207;32.078;34.818;2023-04-15T07:45:48;26.50;40.80
23618;DHT22;18207;32.078;34.818;2023-04-15T07:48:18;26.60;40.80
23618;DHT22;18207;32.078;34.818;2023-04-15T07:50:48;26.60;40.70
23618;DHT22;18207;32.078;34.818;2023-04-15T07:53:18;26.70;40.80
23618;DHT22;18207;32.078;34.818;2023-04-15T07:55:48;26.80;40.80
23618;DHT22;18207;32.078;34.818;2023-04-15T07:58:20;26.90;40.70
23618;DHT22;18207;32.078;34.818;2023-04-15T08:00:50;26.90;40.50
23618;DHT22;18207;32.078;34.818;2023-04-15T08:03:22;27.00;40.50
23618;DHT22;18207;32.078;34.818;2023-04-15T08:05:51;27.00;40.40
23618;DHT22;18207;32.078;34.818;2023-04-15T08:08:22;27.10;40.30
23618;DHT22;18207;32.078;34.818;2023-04-15T08:10:52;27.10;40.20
23618;DHT22;18207;32.078;34.818;2023-04-15T08:13:25;27.20;40.20
23618;DHT22;18207;32.078;34.818;2023-04-15T08:16:15;27.20;40.10
23618;DHT22;18207;32.078;34.818;2023-04-15T08:18:47;27.30;40.10
23618;DHT22;18207;32.078;34.818;2023-04-15T08:21:19;27.40;40.20
23618;DHT22;18207;32.078;34.818;2023-04-15T08:23:50;27.40;40.10
23618;DHT22;18207;32.078;34.818;2023-04-15T08:26:21;27.40;40.00
23618;DHT22;18207;32.078;34.818;2023-04-15T08:28:53;27.50;39.90
23618;DHT22;18207;32.078;34.818;2023-04-15T08:31:26;27.50;39.80
23618;DHT22;18207;32.078;34.818;2023-04-15T08:33:58;27.50;39.70
23618;DHT22;18207;32.078;34.818;2023-04-15T08:36:28;27.60;39.70
23618;DHT22;18207;32.078;34.818;2023-04-15T08:38:59;27.60;39.70
23618;DHT22;18207;32.078;34.818;2023-04-15T08:41:36;27.60;39.70
23618;DHT22;18207;32.078;34.818;2023-04-15T08:44:12;27.60;39.70
23618;DHT22;18207;32.078;34.818;2023-04-15T08:46:42;27.60;39.70
23618;DHT22;18207;32.078;34.818;2023-04-15T08:49:12;27.70;39.80
23618;DHT22;18207;32.078;34.818;2023-04-15T08:51:44;27.70;39.80
23618;DHT22;18207;32.078;34.818;2023-04-15T08:54:14;27.70;39.80
23618;DHT22;18207;32.078;34.818;2023-04-15T08:56:45;27.70;39.60
23618;DHT22;18207;32.078;34.818;2023-04-15T08:59:17;27.70;39.40
23618;DHT22;18207;32.078;34.818;2023-04-15T09:01:48;27.70;39.40
23618;DHT22;18207;32.078;34.818;2023-04-15T09:04:19;27.70;39.50
23618;DHT22;18207;32.078;34.818;2023-04-15T09:06:50;27.80;39.60
23618;DHT22;18207;32.078;34.818;2023-04-15T09:09:20;27.80;39.60
23618;DHT22;18207;32.078;34.818;2023-04-15T09:11:50;27.90;39.50
23618;DHT22;18207;32.078;34.818;2023-04-15T09:14:22;27.90;39.40
23618;DHT22;18207;32.078;34.818;2023-04-15T09:16:56;28.00;39.20
23618;DHT22;18207;32.078;34.818;2023-04-15T09:19:26;28.00;39.00
23618;DHT22;18207;32.078;34.818;2023-04-15T09:21:58;28.10;38.90
23618;DHT22;18207;32.078;34.818;2023-04-15T09:24:35;28.20;38.90
23618;DHT22;18207;32.078;34.818;2023-04-15T09:27:09;28.20;38.70
23618;DHT22;18207;32.078;34.818;2023-04-15T09:29:42;28.30;38.80
23618;DHT22;18207;32.078;34.818;2023-04-15T09:32:13;28.30;38.70
23618;DHT22;18207;32.078;34.818;2023-04-15T09:34:45;28.40;38.60
23618;DHT22;18207;32.078;34.818;2023-04-15T09:37:15;28.50;38.50
23618;DHT22;18207;32.078;34.818;2023-04-15T09:39:58;28.50;38.30
23618;DHT22;18207;32.078;34.818;2023-04-15T09:42:28;28.60;38.40
23618;DHT22;18207;32.078;34.818;2023-04-15T09:45:10;28.70;38.50
23618;DHT22;18207;32.078;34.818;2023-04-15T09:47:40;28.80;38.60
23618;DHT22;18207;32.078;34.818;2023-04-15T09:50:10;28.80;38.70
23618;DHT22;18207;32.078;34.818;2023-04-15T09:52:41;28.80;38.70
23618;DHT22;18207;32.078;34.818;2023-04-15T09:55:12;28.90;38.70
23618;DHT22;18207;32.078;34.818;2023-04-15T09:57:45;28.90;38.70
23618;DHT22;18207;32.078;34.818;2023-04-15T10:00:17;28.90;38.60
23618;DHT22;18207;32.078;34.818;2023-04-15T10:02:48;29.00;38.60
23618;DHT22;18207;32.078;34.818;2023-04-15T10:05:18;29.00;38.60
23618;DHT22;18207;32.078;34.818;2023-04-15T10:07:50;29.10;38.60
23618;DHT22;18207;32.078;34.818;2023-04-15T10:10:20;29.10;38.50
23618;DHT22;18207;32.078;34.818;2023-04-15T10:12:51;29.10;38.50
23618;DHT22;18207;32.078;34.818;2023-04-15T10:15:24;29.10;38.50
23618;DHT22;18207;32.078;34.818;2023-04-15T10:17:55;29.10;38.50
23618;DHT22;18207;32.078;34.818;2023-04-15T10:20:29;29.20;38.50
23618;DHT22;18207;32.078;34.818;2023-04-15T10:22:58;29.20;38.40
23618;DHT22;18207;32.078;34.818;2023-04-15T10:25:31;29.20;38.40
23618;DHT22;18207;32.078;34.818;2023-04-15T10:28:03;29.20;38.30
23618;DHT22;18207;32.078;34.818;2023-04-15T10:30:36;29.20;38.30
23618;DHT22;18207;32.078;34.818;2023-04-15T10:33:08;29.20;38.30
23618;DHT22;18207;32.078;34.818;2023-04-15T10:35:41;29.30;38.40
23618;DHT22;18207;32.078;34.818;2023-04-15T10:38:33;29.30;38.50
23618;DHT22;18207;32.078;34.818;2023-04-15T10:41:14;29.30;38.50
23618;DHT22;18207;32.078;34.818;2023-04-15T10:43:49;29.40;38.50
23618;DHT22;18207;32.078;34.818;2023-04-15T10:46:35;29.30;38.40
23618;DHT22;18207;32.078;34.818;2023-04-15T10:49:08;29.30;38.30
23618;DHT22;18207;32.078;34.818;2023-04-15T10:51:40;29.40;38.40
23618;DHT22;18207;32.078;34.818;2023-04-15T10:54:14;29.30;38.30
23618;DHT22;18207;32.078;34.818;2023-04-15T10:56:45;29.30;38.40
23618;DHT22;18207;32.078;34.818;2023-04-15T10:59:21;29.40;38.40
23618;DHT22;18207;32.078;34.818;2023-04-15T11:01:53;29.40;38.40
23618;DHT22;18207;32.078;34.818;2023-04-15T11:04:51;29.40;38.40
23618;DHT22;18207;32.078;34.818;2023-04-15T11:07:37;29.40;38.20
23618;DHT22;18207;32.078;34.818;2023-04-15T11:10:50;29.40;38.20
23618;DHT22;18207;32.078;34.818;2023-04-15T11:13:50;29.40;38.10
23618;DHT22;18207;32.078;34.818;2023-04-15T11:16:20;29.40;38.10
23618;DHT22;18207;32.078;34.818;2023-04-15T11:18:53;29.40;38.20
23618;DHT22;18207;32.078;34.818;2023-04-15T11:21:24;29.40;38.20
23618;DHT22;18207;32.078;34.818;2023-04-15T11:23:55;29.40;38.10
23618;DHT22;18207;32.078;34.818;2023-04-15T11:26:26;29.40;38.00
23618;DHT22;18207;32.078;34.818;2023-04-15T11:28:58;29.40;38.00
23618;DHT22;18207;32.078;34.818;2023-04-15T11:31:28;29.40;38.00
23618;DHT22;18207;32.078;34.818;2023-04-15T11:33:59;29.40;37.90
23618;DHT22;18207;32.078;34.818;2023-04-15T11:36:30;29.30;37.80
23618;DHT22;18207;32.078;34.818;2023-04-15T11:39:00;29.30;37.80
23618;DHT22;18207;32.078;34.818;2023-04-15T11:41:31;29.30;37.80
23618;DHT22;18207;32.078;34.818;2023-04-15T11:44:02;29.30;37.80
23618;DHT22;18207;32.078;34.818;2023-04-15T11:46:44;29.30;37.70
23618;DHT22;18207;32.078;34.818;2023-04-15T11:49:25;29.30;37.70
23618;DHT22;18207;32.078;34.818;2023-04-15T11:51:56;29.20;37.60
23618;DHT22;18207;32.078;34.818;2023-04-15T11:54:27;29.20;37.60
23618;DHT22;18207;32.078;34.818;2023-04-15T11:56:57;29.20;37.50
23618;DHT22;18207;32.078;34.818;2023-04-15T11:59:41;29.20;37.40
23618;DHT22;18207;32.078;34.818;2023-04-15T12:02:12;29.20;37.00
23618;DHT22;18207;32.078;34.818;2023-04-15T12:04:43;29.20;37.10
23618;DHT22;18207;32.078;34.818;2023-04-15T12:07:13;29.10;36.90
23618;DHT22;18207;32.078;34.818;2023-04-15T12:09:43;29.10;36.80
23618;DHT22;18207;32.078;34.818;2023-04-15T12:12:26;29.10;36.80
23618;DHT22;18207;32.078;34.818;2023-04-15T12:14:59;29.10;36.70
23618;DHT22;18207;32.078;34.818;2023-04-15T12:17:29;29.00;36.60
23618;DHT22;18207;32.078;34.818;2023-04-15T12:20:23;29.00;36.60
23618;DHT22;18207;32.078;34.818;2023-04-15T12:23:04;28.90;36.60
23618;DHT22;18207;32.078;34.818;2023-04-15T12:25:35;28.90;36.60
23618;DHT22;18207;32.078;34.818;2023-04-15T12:28:10;28.90;36.70
23618;DHT22;18207;32.078;34.818;2023-04-15T12:30:50;28.90;36.80
23618;DHT22;18207;32.078;34.818;2023-04-15T12:33:20;28.90;36.80
23618;DHT22;18207;32.078;34.818;2023-04-15T12:35:50;28.80;36.90
23618;DHT22;18207;32.078;34.818;2023-04-15T12:38:20;28.80;37.10
23618;DHT22;18207;32.078;34.818;2023-04-15T12:40:50;28.80;37.20
23618;DHT22;18207;32.078;34.818;2023-04-15T12:43:20;28.80;37.20
23618;DHT22;18207;32.078;34.818;2023-04-15T12:45:52;28.80;37.30
23618;DHT22;18207;32.078;34.818;2023-04-15T12:48:22;28.70;37.40
23618;DHT22;18207;32.078;34.818;2023-04-15T12:50:52;28.70;37.60
23618;DHT22;18207;32.078;34.818;2023-04-15T12:53:22;28.70;37.70
23618;DHT22;18207;32.078;34.818;2023-04-15T12:55:52;28.60;37.90
23618;DHT22;18207;32.078;34.818;2023-04-15T12:58:22;28.60;38.00
23618;DHT22;18207;32.078;34.818;2023-04-15T13:00:54;28.60;38.10
23618;DHT22;18207;32.078;34.818;2023-04-15T13:03:25;28.60;38.30
23618;DHT22;18207;32.078;34.818;2023-04-15T13:05:55;28.60;38.40
23618;DHT22;18207;32.078;34.818;2023-04-15T13:08:27;28.50;38.40
23618;DHT22;18207;32.078;34.818;2023-04-15T13:10:57;28.50;38.40
23618;DHT22;18207;32.078;34.818;2023-04-15T13:13:26;28.50;39.00
23618;DHT22;18207;32.078;34.818;2023-04-15T13:15:59;28.40;38.30
23618;DHT22;18207;32.078;34.818;2023-04-15T13:18:30;28.40;38.40
23618;DHT22;18207;32.078;34.818;2023-04-15T13:21:01;28.30;38.40
23618;DHT22;18207;32.078;34.818;2023-04-15T13:23:31;28.30;38.50
23618;DHT22;18207;32.078;34.818;2023-04-15T13:26:02;28.30;38.50
23618;DHT22;18207;32.078;34.818;2023-04-15T13:28:32;28.20;38.50
23618;DHT22;18207;32.078;34.818;2023-04-15T13:31:04;28.20;38.50
23618;DHT22;18207;32.078;34.818;2023-04-15T13:33:35;28.20;38.60
23618;DHT22;18207;32.078;34.818;2023-04-15T13:36:05;28.20;38.60
23618;DHT22;18207;32.078;34.818;2023-04-15T13:38:35;28.20;38.70
23618;DHT22;18207;32.078;34.818;2023-04-15T13:41:05;28.10;38.60
23618;DHT22;18207;32.078;34.818;2023-04-15T13:43:36;28.20;38.70
23618;DHT22;18207;32.078;34.818;2023-04-15T13:46:07;28.20;38.70
23618;DHT22;18207;32.078;34.818;2023-04-15T13:48:38;28.10;38.60
23618;DHT22;18207;32.078;34.818;2023-04-15T13:51:08;28.10;38.50
23618;DHT22;18207;32.078;34.818;2023-04-15T13:53:38;28.10;38.60
23618;DHT22;18207;32.078;34.818;2023-04-15T13:56:08;28.10;38.50
23618;DHT22;18207;32.078;34.818;2023-04-15T13:58:40;28.00;38.40
23618;DHT22;18207;32.078;34.818;2023-04-15T14:01:11;28.00;38.50
23618;DHT22;18207;32.078;34.818;2023-04-15T14:03:41;28.00;38.50
23618;DHT22;18207;32.078;34.818;2023-04-15T14:06:12;28.00;38.50
23618;DHT22;18207;32.078;34.818;2023-04-15T14:08:42;28.00;38.50
23618;DHT22;18207;32.078;34.818;2023-04-15T14:11:12;28.00;38.50
23618;DHT22;18207;32.078;34.818;2023-04-15T14:13:42;27.90;38.40
23618;DHT22;18207;32.078;34.818;2023-04-15T14:16:14;27.90;38.40
23618;DHT22;18207;32.078;34.818;2023-04-15T14:18:45;27.90;38.30
23618;DHT22;18207;32.078;34.818;2023-04-15T14:21:15;27.90;38.40
23618;DHT22;18207;32.078;34.818;2023-04-15T14:23:45;27.90;38.30
23618;DHT22;18207;32.078;34.818;2023-04-15T14:26:15;27.90;38.40
23618;DHT22;18207;32.078;34.818;2023-04-15T14:28:46;27.90;38.30
23618;DHT22;18207;32.078;34.818;2023-04-15T14:31:18;27.80;38.30
23618;DHT22;18207;32.078;34.818;2023-04-15T14:33:48;27.90;38.40
23618;DHT22;18207;32.078;34.818;2023-04-15T14:36:18;27.80;38.40
23618;DHT22;18207;32.078;34.818;2023-04-15T14:38:48;27.80;38.30
23618;DHT22;18207;32.078;34.818;2023-04-15T14:41:18;27.80;38.40
23618;DHT22;18207;32.078;34.818;2023-04-15T14:43:49;27.80;38.40
23618;DHT22;18207;32.078;34.818;2023-04-15T14:46:22;27.80;38.40
23618;DHT22;18207;32.078;34.818;2023-04-15T14:48:52;27.80;38.50
23618;DHT22;18207;32.078;34.818;2023-04-15T14:51:22;27.80;38.50
23618;DHT22;18207;32.078;34.818;2023-04-15T14:53:53;27.80;38.50
23618;DHT22;18207;32.078;34.818;2023-04-15T14:56:23;27.80;38.40
23618;DHT22;18207;32.078;34.818;2023-04-15T14:58:54;27.80;38.40
23618;DHT22;18207;32.078;34.818;2023-04-15T15:01:26;27.70;38.40
23618;DHT22;18207;32.078;34.818;2023-04-15T15:03:56;27.70;38.30
23618;DHT22;18207;32.078;34.818;2023-04-15T15:06:26;27.70;38.30
23618;DHT22;18207;32.078;34.818;2023-04-15T15:08:56;27.70;38.30
23618;DHT22;18207;32.078;34.818;2023-04-15T15:11:28;27.70;38.30
23618;DHT22;18207;32.078;34.818;2023-04-15T15:13:58;27.70;38.30
23618;DHT22;18207;32.078;34.818;2023-04-15T15:16:30;27.70;38.40
23618;DHT22;18207;32.078;34.818;2023-04-15T15:19:00;27.70;38.40
23618;DHT22;18207;32.078;34.818;2023-04-15T15:21:30;27.60;38.30
23618;DHT22;18207;32.078;34.818;2023-04-15T15:24:00;27.60;38.40
23618;DHT22;18207;32.078;34.818;2023-04-15T15:26:30;27.60;38.40
23618;DHT22;18207;32.078;34.818;2023-04-15T15:29:00;27.60;38.40
23618;DHT22;18207;32.078;34.818;2023-04-15T15:31:33;27.60;38.40
23618;DHT22;18207;32.078;34.818;2023-04-15T15:34:04;27.60;38.40
23618;DHT22;18207;32.078;34.818;2023-04-15T15:36:33;27.60;38.40
23618;DHT22;18207;32.078;34.818;2023-04-15T15:39:03;27.60;38.40
23618;DHT22;18207;32.078;34.818;2023-04-15T15:41:34;27.50;38.90